sensor_id;sensor_type;location;lat;lon;timestamp;P1;durP1;ratioP1;P2;durP2;ratioP2
56307;SDS011;42217;50.422;7.210;2023-04-30T00:00:10;133.50;;;122.83;;
56307;SDS011;42217;50.422;7.210;2023-04-30T00:02:36;139.73;;;128.80;;
56307;SDS011;42217;50.422;7.210;2023-04-30T00:05:02;141.93;;;131.43;;
56307;SDS011;42217;50.422;7.210;2023-04-30T00:07:28;138.60;;;128.30;;
56307;SDS011;42217;50.422;7.210;2023-04-30T00:09:54;138.07;;;128.10;;
56307;SDS011;42217;50.422;7.210;2023-04-30T00:12:20;135.60;;;125.73;;
56307;SDS011;42217;50.422;7.210;2023-04-30T00:14:46;145.67;;;134.87;;
56307;SDS011;42217;50.422;7.210;2023-04-30T00:17:12;142.80;;;131.23;;
56307;SDS011;42217;50.422;7.210;2023-04-30T00:19:37;150.07;;;138.30;;
56307;SDS011;42217;50.422;7.210;2023-04-30T00:22:03;151.57;;;139.70;;
56307;SDS011;42217;50.422;7.210;2023-04-30T00:24:30;143.07;;;131.37;;
56307;SDS011;42217;50.422;7.210;2023-04-30T00:26:55;152.17;;;139.43;;
56307;SDS011;42217;50.422;7.210;2023-04-30T00:29:21;148.07;;;136.27;;
56307;SDS011;42217;50.422;7.210;2023-04-30T00:31:47;151.83;;;139.50;;
56307;SDS011;42217;50.422;7.210;2023-04-30T00:34:12;161.83;;;149.27;;
56307;SDS011;42217;50.422;7.210;2023-04-30T00:36:39;144.53;;;133.13;;
56307;SDS011;42217;50.422;7.210;2023-04-30T00:39:05;152.73;;;140.83;;
56307;SDS011;42217;50.422;7.210;2023-04-30T00:41:31;147.50;;;135.90;;
56307;SDS011;42217;50.422;7.210;2023-04-30T00:43:59;148.00;;;136.80;;
56307;SDS011;42217;50.422;7.210;2023-04-30T00:46:26;148.53;;;137.00;;
56307;SDS011;42217;50.422;7.210;2023-04-30T00:48:51;140.93;;;130.77;;
56307;SDS011;42217;50.422;7.210;2023-04-30T00:51:17;138.27;;;128.13;;
56307;SDS011;42217;50.422;7.210;2023-04-30T00:53:44;140.37;;;129.37;;
56307;SDS011;42217;50.422;7.210;2023-04-30T00:56:10;139.43;;;128.47;;
56307;SDS011;42217;50.422;7.210;2023-04-30T00:58:40;144.20;;;133.57;;
56307;SDS011;42217;50.422;7.210;2023-04-30T01:01:06;141.27;;;130.40;;
56307;SDS011;42217;50.422;7.210;2023-04-30T01:03:31;145.77;;;134.43;;
56307;SDS011;42217;50.422;7.210;2023-04-30T01:05:59;145.33;;;133.77;;
56307;SDS011;42217;50.422;7.210;2023-04-30T01:08:25;146.10;;;134.47;;
56307;SDS011;42217;50.422;7.210;2023-04-30T01:11:04;154.83;;;142.47;;
56307;SDS011;42217;50.422;7.210;2023-04-30T01:13:33;147.70;;;135.67;;
56307;SDS011;42217;50.422;7.210;2023-04-30T01:18:46;149.33;;;137.33;;
56307;SDS011;42217;50.422;7.210;2023-04-30T01:23:53;148.53;;;136.90;;
56307;SDS011;42217;50.422;7.210;2023-04-30T01:29:30;148.20;;;136.50;;
56307;SDS011;42217;50.422;7.210;2023-04-30T01:31:58;140.87;;;130.10;;
56307;SDS011;42217;50.422;7.210;2023-04-30T01:34:26;140.60;;;129.10;;
56307;SDS011;42217;50.422;7.210;2023-04-30T01:39:57;142.13;;;131.90;;
56307;SDS011;42217;50.422;7.210;2023-04-30T01:42:32;135.70;;;125.40;;
56307;SDS011;42217;50.422;7.210;2023-04-30T01:47:51;138.83;;;127.53;;
56307;SDS011;42217;50.422;7.210;2023-04-30T01:50:40;138.10;;;126.70;;
56307;SDS011;42217;50.422;7.210;2023-04-30T01:53:12;137.87;;;126.83;;
56307;SDS011;42217;50.422;7.210;2023-04-30T01:55:56;145.03;;;133.50;;
56307;SDS011;42217;50.422;7.210;2023-04-30T01:58:26;137.73;;;126.20;;
56307;SDS011;42217;50.422;7.210;2023-04-30T02:00:52;146.17;;;134.97;;
56307;SDS011;42217;50.422;7.210;2023-04-30T02:03:19;146.37;;;134.70;;
56307;SDS011;42217;50.422;7.210;2023-04-30T02:05:45;136.27;;;125.60;;
56307;SDS011;42217;50.422;7.210;2023-04-30T02:08:11;137.00;;;126.27;;
56307;SDS011;42217;50.422;7.210;2023-04-30T02:10:37;140.00;;;128.43;;
56307;SDS011;42217;50.422;7.210;2023-04-30T02:13:03;141.83;;;130.57;;
56307;SDS011;42217;50.422;7.210;2023-04-30T02:15:29;143.33;;;131.33;;
56307;SDS011;42217;50.422;7.210;2023-04-30T02:17:54;146.47;;;134.57;;
56307;SDS011;42217;50.422;7.210;2023-04-30T02:20:20;141.77;;;129.17;;
56307;SDS011;42217;50.422;7.210;2023-04-30T02:22:46;138.33;;;127.70;;
56307;SDS011;42217;50.422;7.210;2023-04-30T02:25:12;145.23;;;133.23;;
56307;SDS011;42217;50.422;7.210;2023-04-30T02:27:38;142.73;;;130.83;;
56307;SDS011;42217;50.422;7.210;2023-04-30T02:30:04;143.43;;;131.73;;
56307;SDS011;42217;50.422;7.210;2023-04-30T02:32:31;138.60;;;127.57;;
56307;SDS011;42217;50.422;7.210;2023-04-30T02:34:56;140.47;;;129.73;;
56307;SDS011;42217;50.422;7.210;2023-04-30T02:37:22;136.10;;;124.70;;
56307;SDS011;42217;50.422;7.210;2023-04-30T02:39:48;139.47;;;128.27;;
56307;SDS011;42217;50.422;7.210;2023-04-30T02:42:15;132.77;;;121.93;;
56307;SDS011;42217;50.422;7.210;2023-04-30T02:44:41;145.00;;;132.60;;
56307;SDS011;42217;50.422;7.210;2023-04-30T02:47:06;144.97;;;132.90;;
56307;SDS011;42217;50.422;7.210;2023-04-30T02:49:32;136.27;;;125.07;;
56307;SDS011;42217;50.422;7.210;2023-04-30T02:51:58;153.50;;;140.00;;
56307;SDS011;42217;50.422;7.210;2023-04-30T02:54:23;143.63;;;131.40;;
56307;SDS011;42217;50.422;7.210;2023-04-30T02:56:49;140.40;;;128.50;;
56307;SDS011;42217;50.422;7.210;2023-04-30T02:59:15;146.37;;;132.50;;
56307;SDS011;42217;50.422;7.210;2023-04-30T03:01:40;153.67;;;140.37;;
56307;SDS011;42217;50.422;7.210;2023-04-30T03:04:06;149.67;;;137.27;;
56307;SDS011;42217;50.422;7.210;2023-04-30T03:06:32;147.40;;;134.83;;
56307;SDS011;42217;50.422;7.210;2023-04-30T03:08:58;142.30;;;130.10;;
56307;SDS011;42217;50.422;7.210;2023-04-30T03:11:25;152.73;;;139.80;;
56307;SDS011;42217;50.422;7.210;2023-04-30T03:13:50;153.60;;;141.47;;
56307;SDS011;42217;50.422;7.210;2023-04-30T03:16:16;138.73;;;128.10;;
56307;SDS011;42217;50.422;7.210;2023-04-30T03:18:43;154.63;;;143.57;;
56307;SDS011;42217;50.422;7.210;2023-04-30T03:21:10;155.53;;;145.03;;
56307;SDS011;42217;50.422;7.210;2023-04-30T03:23:35;151.43;;;141.07;;
56307;SDS011;42217;50.422;7.210;2023-04-30T03:26:01;165.97;;;154.40;;
56307;SDS011;42217;50.422;7.210;2023-04-30T03:28:27;160.90;;;148.90;;
56307;SDS011;42217;50.422;7.210;2023-04-30T03:30:53;163.67;;;151.77;;
56307;SDS011;42217;50.422;7.210;2023-04-30T03:33:19;166.40;;;153.20;;
56307;SDS011;42217;50.422;7.210;2023-04-30T03:35:45;160.07;;;147.67;;
56307;SDS011;42217;50.422;7.210;2023-04-30T03:38:10;175.60;;;161.60;;
56307;SDS011;42217;50.422;7.210;2023-04-30T03:40:36;185.80;;;171.20;;
56307;SDS011;42217;50.422;7.210;2023-04-30T03:43:02;173.17;;;159.03;;
56307;SDS011;42217;50.422;7.210;2023-04-30T03:45:27;176.67;;;161.57;;
56307;SDS011;42217;50.422;7.210;2023-04-30T03:47:53;177.03;;;162.47;;
56307;SDS011;42217;50.422;7.210;2023-04-30T03:50:19;179.67;;;164.80;;
56307;SDS011;42217;50.422;7.210;2023-04-30T03:52:44;213.80;;;195.70;;
56307;SDS011;42217;50.422;7.210;2023-04-30T03:55:10;191.77;;;175.27;;
56307;SDS011;42217;50.422;7.210;2023-04-30T03:57:37;178.53;;;162.40;;
56307;SDS011;42217;50.422;7.210;2023-04-30T04:00:04;180.57;;;164.47;;
56307;SDS011;42217;50.422;7.210;2023-04-30T04:02:33;193.87;;;177.47;;
56307;SDS011;42217;50.422;7.210;2023-04-30T04:04:59;193.27;;;176.23;;
56307;SDS011;42217;50.422;7.210;2023-04-30T04:07:24;181.13;;;166.17;;
56307;SDS011;42217;50.422;7.210;2023-04-30T04:09:50;169.83;;;154.90;;
56307;SDS011;42217;50.422;7.210;2023-04-30T04:12:16;172.57;;;157.63;;
56307;SDS011;42217;50.422;7.210;2023-04-30T04:14:41;176.17;;;160.90;;
56307;SDS011;42217;50.422;7.210;2023-04-30T04:17:07;174.30;;;159.57;;
56307;SDS011;42217;50.422;7.210;2023-04-30T04:19:33;171.50;;;157.63;;
56307;SDS011;42217;50.422;7.210;2023-04-30T04:21:58;186.03;;;170.73;;
56307;SDS011;42217;50.422;7.210;2023-04-30T04:24:24;176.87;;;162.87;;
56307;SDS011;42217;50.422;7.210;2023-04-30T04:26:50;164.87;;;150.60;;
56307;SDS011;42217;50.422;7.210;2023-04-30T04:29:17;180.30;;;165.13;;
56307;SDS011;42217;50.422;7.210;2023-04-30T04:31:43;184.17;;;167.60;;
56307;SDS011;42217;50.422;7.210;2023-04-30T04:34:09;195.37;;;178.63;;
56307;SDS011;42217;50.422;7.210;2023-04-30T04:36:35;227.60;;;208.43;;
56307;SDS011;42217;50.422;7.210;2023-04-30T04:39:01;225.23;;;207.03;;
56307;SDS011;42217;50.422;7.210;2023-04-30T04:41:31;246.33;;;226.27;;
56307;SDS011;42217;50.422;7.210;2023-04-30T04:43:57;257.07;;;236.27;;
56307;SDS011;42217;50.422;7.210;2023-04-30T04:46:24;266.23;;;246.00;;
56307;SDS011;42217;50.422;7.210;2023-04-30T04:48:50;255.10;;;235.97;;
56307;SDS011;42217;50.422;7.210;2023-04-30T04:51:17;291.13;;;269.53;;
56307;SDS011;42217;50.422;7.210;2023-04-30T04:53:43;359.00;;;334.07;;
56307;SDS011;42217;50.422;7.210;2023-04-30T04:56:08;409.03;;;381.10;;
56307;SDS011;42217;50.422;7.210;2023-04-30T04:58:34;473.27;;;442.97;;
56307;SDS011;42217;50.422;7.210;2023-04-30T05:01:00;374.00;;;348.80;;
56307;SDS011;42217;50.422;7.210;2023-04-30T05:03:27;467.00;;;436.80;;
56307;SDS011;42217;50.422;7.210;2023-04-30T05:05:53;459.07;;;429.63;;
56307;SDS011;42217;50.422;7.210;2023-04-30T05:08:18;389.33;;;363.90;;
56307;SDS011;42217;50.422;7.210;2023-04-30T05:10:44;413.90;;;387.20;;
56307;SDS011;42217;50.422;7.210;2023-04-30T05:13:10;424.63;;;397.17;;
56307;SDS011;42217;50.422;7.210;2023-04-30T05:15:36;407.67;;;380.67;;
56307;SDS011;42217;50.422;7.210;2023-04-30T05:18:02;442.17;;;412.90;;
56307;SDS011;42217;50.422;7.210;2023-04-30T05:20:27;432.47;;;404.87;;
56307;SDS011;42217;50.422;7.210;2023-04-30T05:22:53;464.53;;;434.53;;
56307;SDS011;42217;50.422;7.210;2023-04-30T05:25:19;450.23;;;420.57;;
56307;SDS011;42217;50.422;7.210;2023-04-30T05:27:45;454.43;;;425.10;;
56307;SDS011;42217;50.422;7.210;2023-04-30T05:30:10;465.50;;;434.83;;
56307;SDS011;42217;50.422;7.210;2023-04-30T05:32:36;494.03;;;462.00;;
56307;SDS011;42217;50.422;7.210;2023-04-30T05:35:02;546.33;;;511.57;;
56307;SDS011;42217;50.422;7.210;2023-04-30T05:37:28;546.47;;;511.10;;
56307;SDS011;42217;50.422;7.210;2023-04-30T05:39:54;565.97;;;529.40;;
56307;SDS011;42217;50.422;7.210;2023-04-30T05:42:19;556.70;;;520.97;;
56307;SDS011;42217;50.422;7.210;2023-04-30T05:44:45;561.07;;;524.73;;
56307;SDS011;42217;50.422;7.210;2023-04-30T05:47:12;546.53;;;510.50;;
56307;SDS011;42217;50.422;7.210;2023-04-30T05:49:37;542.23;;;506.63;;
56307;SDS011;42217;50.422;7.210;2023-04-30T05:52:03;558.80;;;522.33;;
56307;SDS011;42217;50.422;7.210;2023-04-30T05:54:29;570.83;;;534.53;;
56307;SDS011;42217;50.422;7.210;2023-04-30T05:56:55;563.70;;;528.03;;
56307;SDS011;42217;50.422;7.210;2023-04-30T05:59:21;542.17;;;507.27;;
56307;SDS011;42217;50.422;7.210;2023-04-30T06:01:46;531.33;;;498.40;;
56307;SDS011;42217;50.422;7.210;2023-04-30T06:04:12;539.63;;;504.97;;
56307;SDS011;42217;50.422;7.210;2023-04-30T06:06:38;485.27;;;455.70;;
56307;SDS011;42217;50.422;7.210;2023-04-30T06:09:04;379.20;;;354.47;;
56307;SDS011;42217;50.422;7.210;2023-04-30T06:11:30;250.53;;;232.43;;
56307;SDS011;42217;50.422;7.210;2023-04-30T06:13:56;201.20;;;185.50;;
56307;SDS011;42217;50.422;7.210;2023-04-30T06:16:22;156.73;;;142.93;;
56307;SDS011;42217;50.422;7.210;2023-04-30T06:18:48;145.00;;;132.57;;
56307;SDS011;42217;50.422;7.210;2023-04-30T06:21:14;139.27;;;126.40;;
56307;SDS011;42217;50.422;7.210;2023-04-30T06:23:39;132.35;;;120.30;;
56307;SDS011;42217;50.422;7.210;2023-04-30T06:26:05;136.20;;;123.87;;
56307;SDS011;42217;50.422;7.210;2023-04-30T06:28:31;135.07;;;122.87;;
56307;SDS011;42217;50.422;7.210;2023-04-30T06:30:57;136.73;;;124.47;;
56307;SDS011;42217;50.422;7.210;2023-04-30T06:33:23;136.77;;;124.80;;
56307;SDS011;42217;50.422;7.210;2023-04-30T06:35:48;134.87;;;122.67;;
56307;SDS011;42217;50.422;7.210;2023-04-30T06:38:19;133.37;;;121.53;;
56307;SDS011;42217;50.422;7.210;2023-04-30T06:40:45;130.13;;;118.93;;
56307;SDS011;42217;50.422;7.210;2023-04-30T06:43:11;118.00;;;108.03;;
56307;SDS011;42217;50.422;7.210;2023-04-30T06:45:37;123.30;;;112.83;;
56307;SDS011;42217;50.422;7.210;2023-04-30T06:48:03;114.43;;;104.63;;
56307;SDS011;42217;50.422;7.210;2023-04-30T06:50:29;114.20;;;104.80;;
56307;SDS011;42217;50.422;7.210;2023-04-30T06:52:55;118.13;;;108.20;;
56307;SDS011;42217;50.422;7.210;2023-04-30T06:55:21;121.67;;;112.33;;
56307;SDS011;42217;50.422;7.210;2023-04-30T06:57:46;115.07;;;105.73;;
56307;SDS011;42217;50.422;7.210;2023-04-30T07:00:12;121.73;;;112.43;;
56307;SDS011;42217;50.422;7.210;2023-04-30T07:02:41;125.40;;;116.47;;
56307;SDS011;42217;50.422;7.210;2023-04-30T07:05:07;185.50;;;174.67;;
56307;SDS011;42217;50.422;7.210;2023-04-30T07:07:35;217.73;;;205.90;;
56307;SDS011;42217;50.422;7.210;2023-04-30T07:10:00;196.17;;;185.17;;
56307;SDS011;42217;50.422;7.210;2023-04-30T07:12:26;189.53;;;179.10;;
56307;SDS011;42217;50.422;7.210;2023-04-30T07:14:52;133.93;;;125.47;;
56307;SDS011;42217;50.422;7.210;2023-04-30T07:17:17;139.40;;;130.13;;
56307;SDS011;42217;50.422;7.210;2023-04-30T07:19:43;133.83;;;125.43;;
56307;SDS011;42217;50.422;7.210;2023-04-30T07:22:09;94.97;;;88.80;;
56307;SDS011;42217;50.422;7.210;2023-04-30T07:24:35;95.57;;;88.83;;
56307;SDS011;42217;50.422;7.210;2023-04-30T07:27:01;102.63;;;96.07;;
56307;SDS011;42217;50.422;7.210;2023-04-30T07:29:27;99.60;;;93.07;;
56307;SDS011;42217;50.422;7.210;2023-04-30T07:31:54;100.27;;;93.63;;
56307;SDS011;42217;50.422;7.210;2023-04-30T07:34:20;109.20;;;102.53;;
56307;SDS011;42217;50.422;7.210;2023-04-30T07:36:49;97.67;;;91.33;;
56307;SDS011;42217;50.422;7.210;2023-04-30T07:39:15;95.72;;;90.00;;
56307;SDS011;42217;50.422;7.210;2023-04-30T07:41:41;102.07;;;96.35;;
56307;SDS011;42217;50.422;7.210;2023-04-30T07:44:07;102.45;;;96.60;;
56307;SDS011;42217;50.422;7.210;2023-04-30T07:46:33;95.32;;;89.68;;
56307;SDS011;42217;50.422;7.210;2023-04-30T07:49:00;92.82;;;87.35;;
56307;SDS011;42217;50.422;7.210;2023-04-30T07:51:26;105.70;;;98.93;;
56307;SDS011;42217;50.422;7.210;2023-04-30T07:53:53;86.15;;;80.95;;
56307;SDS011;42217;50.422;7.210;2023-04-30T07:56:18;96.78;;;90.65;;
56307;SDS011;42217;50.422;7.210;2023-04-30T07:58:44;106.22;;;100.30;;
56307;SDS011;42217;50.422;7.210;2023-04-30T08:01:10;118.43;;;111.47;;
56307;SDS011;42217;50.422;7.210;2023-04-30T08:03:35;111.13;;;104.70;;
56307;SDS011;42217;50.422;7.210;2023-04-30T08:06:01;108.78;;;102.35;;
56307;SDS011;42217;50.422;7.210;2023-04-30T08:08:27;119.40;;;112.57;;
56307;SDS011;42217;50.422;7.210;2023-04-30T08:10:53;119.38;;;112.70;;
56307;SDS011;42217;50.422;7.210;2023-04-30T08:13:18;98.60;;;93.05;;
56307;SDS011;42217;50.422;7.210;2023-04-30T08:15:44;141.05;;;133.82;;
56307;SDS011;42217;50.422;7.210;2023-04-30T08:18:10;146.10;;;138.15;;
56307;SDS011;42217;50.422;7.210;2023-04-30T08:20:36;172.65;;;164.02;;
56307;SDS011;42217;50.422;7.210;2023-04-30T08:23:02;183.20;;;173.85;;
56307;SDS011;42217;50.422;7.210;2023-04-30T08:25:28;145.60;;;137.95;;
56307;SDS011;42217;50.422;7.210;2023-04-30T08:27:55;158.48;;;150.35;;
56307;SDS011;42217;50.422;7.210;2023-04-30T08:30:21;156.18;;;147.90;;
56307;SDS011;42217;50.422;7.210;2023-04-30T08:32:47;174.82;;;166.48;;
56307;SDS011;42217;50.422;7.210;2023-04-30T08:35:13;179.35;;;170.43;;
56307;SDS011;42217;50.422;7.210;2023-04-30T08:37:40;211.25;;;201.05;;
56307;SDS011;42217;50.422;7.210;2023-04-30T08:40:06;198.68;;;189.07;;
56307;SDS011;42217;50.422;7.210;2023-04-30T08:42:35;250.75;;;238.98;;
56307;SDS011;42217;50.422;7.210;2023-04-30T08:45:02;258.98;;;247.13;;
56307;SDS011;42217;50.422;7.210;2023-04-30T08:47:28;223.73;;;213.25;;
56307;SDS011;42217;50.422;7.210;2023-04-30T08:49:55;252.07;;;240.05;;
56307;SDS011;42217;50.422;7.210;2023-04-30T08:52:21;254.80;;;243.13;;
56307;SDS011;42217;50.422;7.210;2023-04-30T08:54:47;202.77;;;193.13;;
56307;SDS011;42217;50.422;7.210;2023-04-30T08:57:15;258.77;;;246.82;;
56307;SDS011;42217;50.422;7.210;2023-04-30T08:59:45;247.93;;;236.43;;
56307;SDS011;42217;50.422;7.210;2023-04-30T09:02:11;189.75;;;181.07;;
56307;SDS011;42217;50.422;7.210;2023-04-30T09:04:37;235.93;;;224.85;;
56307;SDS011;42217;50.422;7.210;2023-04-30T09:07:03;139.40;;;132.95;;
56307;SDS011;42217;50.422;7.210;2023-04-30T09:09:29;123.80;;;117.65;;
56307;SDS011;42217;50.422;7.210;2023-04-30T09:12:14;179.40;;;171.13;;
56307;SDS011;42217;50.422;7.210;2023-04-30T09:14:51;188.00;;;179.00;;
56307;SDS011;42217;50.422;7.210;2023-04-30T09:17:24;130.00;;;123.97;;
56307;SDS011;42217;50.422;7.210;2023-04-30T09:19:50;135.45;;;129.02;;
56307;SDS011;42217;50.422;7.210;2023-04-30T09:22:20;108.47;;;103.40;;
56307;SDS011;42217;50.422;7.210;2023-04-30T09:24:47;135.45;;;129.27;;
56307;SDS011;42217;50.422;7.210;2023-04-30T09:27:16;122.57;;;116.95;;
56307;SDS011;42217;50.422;7.210;2023-04-30T09:29:42;100.45;;;95.78;;
56307;SDS011;42217;50.422;7.210;2023-04-30T09:32:09;83.00;;;79.05;;
56307;SDS011;42217;50.422;7.210;2023-04-30T09:34:35;76.05;;;72.45;;
56307;SDS011;42217;50.422;7.210;2023-04-30T09:37:01;70.05;;;66.72;;
56307;SDS011;42217;50.422;7.210;2023-04-30T09:39:28;71.65;;;68.20;;
56307;SDS011;42217;50.422;7.210;2023-04-30T09:42:07;74.50;;;70.70;;
56307;SDS011;42217;50.422;7.210;2023-04-30T09:44:37;70.03;;;66.63;;
56307;SDS011;42217;50.422;7.210;2023-04-30T09:47:04;64.07;;;60.85;;
56307;SDS011;42217;50.422;7.210;2023-04-30T09:49:48;60.35;;;57.30;;
56307;SDS011;42217;50.422;7.210;2023-04-30T09:52:18;62.30;;;59.17;;
56307;SDS011;42217;50.422;7.210;2023-04-30T09:54:45;74.72;;;71.10;;
56307;SDS011;42217;50.422;7.210;2023-04-30T09:57:12;65.47;;;62.38;;
56307;SDS011;42217;50.422;7.210;2023-04-30T09:59:43;64.82;;;61.20;;
56307;SDS011;42217;50.422;7.210;2023-04-30T10:02:10;63.10;;;59.95;;
56307;SDS011;42217;50.422;7.210;2023-04-30T10:04:41;62.35;;;59.30;;
56307;SDS011;42217;50.422;7.210;2023-04-30T10:07:13;63.00;;;59.88;;
56307;SDS011;42217;50.422;7.210;2023-04-30T10:09:45;65.43;;;62.00;;
56307;SDS011;42217;50.422;7.210;2023-04-30T10:12:23;65.28;;;61.97;;
56307;SDS011;42217;50.422;7.210;2023-04-30T10:14:56;68.13;;;65.00;;
56307;SDS011;42217;50.422;7.210;2023-04-30T10:17:26;70.45;;;67.10;;
56307;SDS011;42217;50.422;7.210;2023-04-30T10:20:00;72.95;;;68.57;;
56307;SDS011;42217;50.422;7.210;2023-04-30T10:22:29;72.40;;;68.47;;
56307;SDS011;42217;50.422;7.210;2023-04-30T10:24:59;68.65;;;65.45;;
56307;SDS011;42217;50.422;7.210;2023-04-30T10:27:26;63.67;;;60.83;;
56307;SDS011;42217;50.422;7.210;2023-04-30T10:29:53;67.80;;;64.70;;
56307;SDS011;42217;50.422;7.210;2023-04-30T10:32:19;70.55;;;67.22;;
56307;SDS011;42217;50.422;7.210;2023-04-30T10:34:54;69.28;;;66.07;;
56307;SDS011;42217;50.422;7.210;2023-04-30T10:37:35;65.32;;;62.22;;
56307;SDS011;42217;50.422;7.210;2023-04-30T10:40:10;63.60;;;60.50;;
56307;SDS011;42217;50.422;7.210;2023-04-30T10:42:36;70.55;;;66.90;;
56307;SDS011;42217;50.422;7.210;2023-04-30T10:45:02;71.22;;;68.03;;
56307;SDS011;42217;50.422;7.210;2023-04-30T10:47:28;68.28;;;65.22;;
56307;SDS011;42217;50.422;7.210;2023-04-30T10:50:01;71.25;;;68.05;;
56307;SDS011;42217;50.422;7.210;2023-04-30T10:52:28;71.22;;;67.72;;
56307;SDS011;42217;50.422;7.210;2023-04-30T10:54:54;94.93;;;90.65;;
56307;SDS011;42217;50.422;7.210;2023-04-30T10:57:20;74.20;;;70.88;;
56307;SDS011;42217;50.422;7.210;2023-04-30T11:02:15;76.15;;;72.57;;
56307;SDS011;42217;50.422;7.210;2023-04-30T11:07:32;68.97;;;65.97;;
56307;SDS011;42217;50.422;7.210;2023-04-30T11:09:59;75.38;;;71.97;;
56307;SDS011;42217;50.422;7.210;2023-04-30T11:12:25;70.43;;;67.28;;
56307;SDS011;42217;50.422;7.210;2023-04-30T11:14:52;75.95;;;72.55;;
56307;SDS011;42217;50.422;7.210;2023-04-30T11:17:37;90.28;;;86.28;;
56307;SDS011;42217;50.422;7.210;2023-04-30T11:20:04;85.63;;;81.70;;
56307;SDS011;42217;50.422;7.210;2023-04-30T11:22:30;85.05;;;81.25;;
56307;SDS011;42217;50.422;7.210;2023-04-30T11:27:32;85.13;;;81.22;;
56307;SDS011;42217;50.422;7.210;2023-04-30T11:29:59;94.10;;;89.97;;
56307;SDS011;42217;50.422;7.210;2023-04-30T11:32:30;90.55;;;86.53;;
56307;SDS011;42217;50.422;7.210;2023-04-30T11:35:01;106.55;;;101.85;;
56307;SDS011;42217;50.422;7.210;2023-04-30T11:40:04;100.32;;;95.93;;
56307;SDS011;42217;50.422;7.210;2023-04-30T11:42:38;102.47;;;97.93;;
56307;SDS011;42217;50.422;7.210;2023-04-30T11:45:09;104.82;;;100.22;;
56307;SDS011;42217;50.422;7.210;2023-04-30T11:47:43;95.93;;;91.68;;
56307;SDS011;42217;50.422;7.210;2023-04-30T11:50:13;113.15;;;107.88;;
56307;SDS011;42217;50.422;7.210;2023-04-30T11:52:40;114.57;;;109.47;;
56307;SDS011;42217;50.422;7.210;2023-04-30T11:55:14;101.30;;;96.80;;
56307;SDS011;42217;50.422;7.210;2023-04-30T11:57:42;113.28;;;108.22;;
56307;SDS011;42217;50.422;7.210;2023-04-30T12:00:12;119.15;;;113.75;;
56307;SDS011;42217;50.422;7.210;2023-04-30T12:02:43;112.43;;;107.53;;
56307;SDS011;42217;50.422;7.210;2023-04-30T12:05:15;98.20;;;93.63;;
56307;SDS011;42217;50.422;7.210;2023-04-30T12:07:45;106.47;;;101.78;;
56307;SDS011;42217;50.422;7.210;2023-04-30T12:10:12;114.55;;;109.15;;
56307;SDS011;42217;50.422;7.210;2023-04-30T12:12:39;128.82;;;123.10;;
56307;SDS011;42217;50.422;7.210;2023-04-30T12:15:10;138.90;;;132.73;;
56307;SDS011;42217;50.422;7.210;2023-04-30T12:17:37;127.88;;;121.97;;
56307;SDS011;42217;50.422;7.210;2023-04-30T12:20:02;134.23;;;128.07;;
56307;SDS011;42217;50.422;7.210;2023-04-30T12:22:29;129.13;;;123.35;;
56307;SDS011;42217;50.422;7.210;2023-04-30T12:24:55;147.65;;;140.90;;
56307;SDS011;42217;50.422;7.210;2023-04-30T12:27:23;131.95;;;126.05;;
56307;SDS011;42217;50.422;7.210;2023-04-30T12:29:48;140.27;;;134.02;;
56307;SDS011;42217;50.422;7.210;2023-04-30T12:32:18;130.13;;;124.07;;
56307;SDS011;42217;50.422;7.210;2023-04-30T12:34:45;145.45;;;138.90;;
56307;SDS011;42217;50.422;7.210;2023-04-30T12:37:14;156.43;;;148.85;;
56307;SDS011;42217;50.422;7.210;2023-04-30T12:39:40;152.95;;;145.98;;
56307;SDS011;42217;50.422;7.210;2023-04-30T12:42:06;159.00;;;151.90;;
56307;SDS011;42217;50.422;7.210;2023-04-30T12:44:32;146.20;;;139.70;;
56307;SDS011;42217;50.422;7.210;2023-04-30T12:47:08;165.60;;;158.13;;
56307;SDS011;42217;50.422;7.210;2023-04-30T12:49:34;150.43;;;143.65;;
56307;SDS011;42217;50.422;7.210;2023-04-30T12:52:04;183.05;;;174.98;;
56307;SDS011;42217;50.422;7.210;2023-04-30T12:54:32;180.27;;;172.23;;
56307;SDS011;42217;50.422;7.210;2023-04-30T12:57:18;168.45;;;161.00;;
56307;SDS011;42217;50.422;7.210;2023-04-30T12:59:56;168.45;;;160.93;;
56307;SDS011;42217;50.422;7.210;2023-04-30T13:02:23;183.75;;;175.50;;
56307;SDS011;42217;50.422;7.210;2023-04-30T13:04:51;189.32;;;180.93;;
56307;SDS011;42217;50.422;7.210;2023-04-30T13:07:17;192.73;;;184.23;;
56307;SDS011;42217;50.422;7.210;2023-04-30T13:09:43;210.20;;;200.82;;
56307;SDS011;42217;50.422;7.210;2023-04-30T13:12:08;193.20;;;184.63;;
56307;SDS011;42217;50.422;7.210;2023-04-30T13:14:34;201.35;;;192.48;;
56307;SDS011;42217;50.422;7.210;2023-04-30T13:17:00;199.77;;;190.85;;
56307;SDS011;42217;50.422;7.210;2023-04-30T13:19:29;170.32;;;162.75;;
56307;SDS011;42217;50.422;7.210;2023-04-30T13:21:55;127.35;;;121.70;;
56307;SDS011;42217;50.422;7.210;2023-04-30T13:24:21;97.85;;;93.47;;
56307;SDS011;42217;50.422;7.210;2023-04-30T13:26:47;71.78;;;68.57;;
56307;SDS011;42217;50.422;7.210;2023-04-30T13:29:13;66.57;;;63.63;;
56307;SDS011;42217;50.422;7.210;2023-04-30T13:31:39;58.63;;;55.97;;
56307;SDS011;42217;50.422;7.210;2023-04-30T13:34:06;53.95;;;51.58;;
56307;SDS011;42217;50.422;7.210;2023-04-30T13:36:35;41.05;;;39.25;;
56307;SDS011;42217;50.422;7.210;2023-04-30T13:39:00;37.58;;;35.90;;
56307;SDS011;42217;50.422;7.210;2023-04-30T13:41:26;34.88;;;33.28;;
56307;SDS011;42217;50.422;7.210;2023-04-30T13:43:52;34.40;;;32.80;;
56307;SDS011;42217;50.422;7.210;2023-04-30T13:46:18;34.80;;;33.28;;
56307;SDS011;42217;50.422;7.210;2023-04-30T13:48:43;38.92;;;37.08;;
56307;SDS011;42217;50.422;7.210;2023-04-30T13:51:12;39.90;;;38.13;;
56307;SDS011;42217;50.422;7.210;2023-04-30T13:53:38;40.35;;;38.60;;
56307;SDS011;42217;50.422;7.210;2023-04-30T13:56:04;42.72;;;40.83;;
56307;SDS011;42217;50.422;7.210;2023-04-30T13:58:31;42.83;;;40.92;;
56307;SDS011;42217;50.422;7.210;2023-04-30T14:00:57;45.78;;;43.67;;
56307;SDS011;42217;50.422;7.210;2023-04-30T14:03:23;45.30;;;43.30;;
56307;SDS011;42217;50.422;7.210;2023-04-30T14:05:49;42.13;;;40.13;;
56307;SDS011;42217;50.422;7.210;2023-04-30T14:08:14;38.17;;;36.50;;
56307;SDS011;42217;50.422;7.210;2023-04-30T14:10:40;42.35;;;40.33;;
56307;SDS011;42217;50.422;7.210;2023-04-30T14:13:06;46.25;;;44.15;;
56307;SDS011;42217;50.422;7.210;2023-04-30T14:15:32;43.80;;;41.83;;
56307;SDS011;42217;50.422;7.210;2023-04-30T14:17:58;49.53;;;47.33;;
56307;SDS011;42217;50.422;7.210;2023-04-30T14:20:26;57.00;;;54.47;;
56307;SDS011;42217;50.422;7.210;2023-04-30T14:22:51;60.92;;;58.25;;
56307;SDS011;42217;50.422;7.210;2023-04-30T14:25:17;70.47;;;67.35;;
56307;SDS011;42217;50.422;7.210;2023-04-30T14:27:43;68.80;;;65.70;;